createdAt,value
2024-03-04T00:01:01.530Z,96.97
2024-03-04T00:02:05.131Z,101.50
2024-03-04T00:03:10.449Z,92.47
2024-03-04T00:04:14.346Z,109.85
2024-03-04T00:05:17.743Z,110.10
2024-03-04T00:06:23.563Z,59.95
2024-03-04T00:07:27.699Z,65.08
2024-03-04T00:08:33.227Z,61.15
2024-03-04T00:09:36.721Z,59.43
2024-03-04T00:10:40.212Z,50.43
2024-03-04T00:11:43.482Z,48.78
2024-03-04T00:12:48.325Z,39.23
2024-03-04T00:13:51.514Z,36.70
2024-03-04T00:14:55.407Z,36.43
2024-03-04T00:15:58.812Z,37.68
2024-03-04T00:17:02.384Z,31.88
2024-03-04T00:18:06.823Z,30.65
2024-03-04T00:19:10.238Z,27.68
2024-03-04T00:20:14.779Z,27.98
2024-03-04T00:21:22.425Z,37.92
2024-03-04T00:22:25.929Z,32.80
2024-03-04T00:23:31.334Z,28.62
2024-03-04T00:24:34.971Z,22.48
2024-03-04T00:25:38.227Z,20.85
2024-03-04T00:26:42.265Z,21.75
2024-03-04T00:27:47.781Z,26.27
2024-03-04T00:28:52.465Z,28.77
2024-03-04T00:29:55.617Z,25.25
2024-03-04T00:30:59.053Z,23.18
2024-03-04T00:32:02.743Z,23.73
2024-03-04T00:33:06.196Z,22.05
2024-03-04T00:34:09.566Z,21.87
2024-03-04T00:35:15.082Z,20.47
2024-03-04T00:36:23.809Z,25.58
2024-03-04T00:37:27.799Z,35.52
2024-03-04T00:38:31.236Z,39.50
2024-03-04T00:39:34.572Z,53.02
2024-03-04T00:40:38.091Z,60.75
2024-03-04T00:41:41.541Z,76.43
2024-03-04T00:42:44.793Z,98.90
2024-03-04T00:43:49.151Z,79.38
2024-03-04T00:44:52.935Z,52.32
2024-03-04T00:45:56.564Z,61.18
2024-03-04T00:47:01.026Z,71.42
2024-03-04T00:48:04.414Z,102.38
2024-03-04T00:49:07.716Z,63.18
2024-03-04T00:50:11.718Z,64.48
2024-03-04T00:51:15.683Z,60.22
2024-03-04T00:52:19.848Z,53.12
2024-03-04T00:53:23.241Z,42.57
2024-03-04T00:54:27.086Z,29.47
2024-03-04T00:55:30.764Z,21.70
2024-03-04T00:56:35.099Z,19.57
2024-03-04T00:57:39.838Z,16.93
2024-03-04T00:58:43.828Z,16.75
2024-03-04T00:59:47.430Z,16.68
2024-03-04T01:00:51.080Z,17.15
2024-03-04T01:01:54.514Z,16.73
2024-03-04T01:02:58.627Z,16.40
2024-03-04T01:04:02.416Z,15.92
2024-03-04T01:05:06.053Z,15.67
2024-03-04T01:06:09.495Z,16.47
2024-03-04T01:07:13.003Z,16.28
2024-03-04T01:08:16.997Z,16.90
2024-03-04T01:09:20.373Z,17.18
2024-03-04T01:10:24.870Z,16.82
2024-03-04T01:11:30.005Z,16.77
2024-03-04T01:12:34.069Z,17.22
2024-03-04T01:13:37.234Z,16.42
2024-03-04T01:14:43.067Z,16.77
2024-03-04T01:15:48.961Z,17.58
2024-03-04T01:16:53.731Z,20.27
2024-03-04T01:17:58.202Z,26.65
2024-03-04T01:19:02.012Z,30.48
2024-03-04T01:20:05.837Z,33.77
2024-03-04T01:21:09.461Z,35.48
2024-03-04T01:22:15.017Z,40.02
2024-03-04T01:23:18.384Z,42.32
2024-03-04T01:24:23.886Z,44.47
2024-03-04T01:25:27.564Z,44.55
2024-03-04T01:26:31.096Z,46.88
2024-03-04T01:27:34.221Z,46.22
2024-03-04T01:28:37.562Z,46.47
2024-03-04T01:29:43.986Z,48.15
2024-03-04T01:30:47.171Z,54.47
2024-03-04T01:31:51.849Z,56.93
2024-03-04T01:32:57.851Z,57.18
2024-03-04T01:34:02.002Z,59.73
2024-03-04T01:35:09.195Z,56.77
2024-03-04T01:36:16.734Z,54.05
2024-03-04T01:37:23.311Z,49.08
2024-03-04T01:38:26.686Z,50.25
2024-03-04T01:39:29.735Z,56.12
2024-03-04T01:40:33.985Z,63.25
2024-03-04T01:41:38.159Z,81.45
2024-03-04T01:42:45.216Z,94.75
2024-03-04T01:43:48.553Z,105.20
2024-03-04T01:44:52.134Z,91.40
2024-03-04T01:45:55.242Z,84.65
2024-03-04T01:46:58.725Z,74.63
2024-03-04T01:48:21.142Z,72.17
2024-03-04T01:49:25.445Z,64.40
2024-03-04T01:50:34.980Z,64.22
2024-03-04T01:51:38.794Z,63.73
2024-03-04T01:52:42.178Z,52.33
2024-03-04T01:53:45.751Z,63.42
2024-03-04T01:54:54.714Z,92.42
2024-03-04T01:56:01.833Z,96.97
2024-03-04T01:57:09.213Z,90.17
2024-03-04T01:58:14.400Z,85.87
2024-03-04T01:59:19.044Z,83.77
2024-03-04T02:00:26.410Z,82.55
2024-03-04T02:01:30.337Z,81.18
2024-03-04T02:02:34.705Z,70.27
2024-03-04T02:03:39.506Z,59.70
2024-03-04T02:04:43.756Z,56.25
2024-03-04T02:05:48.739Z,53.37
2024-03-04T02:06:52.694Z,48.55
2024-03-04T02:07:57.444Z,43.22
2024-03-04T02:09:00.890Z,42.63
2024-03-04T02:10:09.936Z,39.62
2024-03-04T02:11:13.915Z,39.68
2024-03-04T02:12:17.242Z,40.80
2024-03-04T02:13:22.033Z,44.67
2024-03-04T02:14:25.462Z,52.98
2024-03-04T02:15:29.914Z,53.90
2024-03-04T02:16:33.736Z,51.72
2024-03-04T02:17:38.495Z,50.70
2024-03-04T02:18:42.143Z,49.78
2024-03-04T02:19:48.458Z,49.00
2024-03-04T02:20:56.382Z,48.35
2024-03-04T02:22:04.007Z,39.95
2024-03-04T02:23:13.195Z,39.63
2024-03-04T02:24:16.615Z,35.77
2024-03-04T02:25:23.879Z,36.92
2024-03-04T02:26:28.078Z,35.73
2024-03-04T02:27:31.259Z,36.92
2024-03-04T02:28:34.667Z,31.17
2024-03-04T02:29:39.081Z,20.05
2024-03-04T02:30:42.364Z,18.37
2024-03-04T02:31:47.714Z,17.90
2024-03-04T02:32:51.011Z,18.23
2024-03-04T02:33:54.058Z,18.10
2024-03-04T02:34:59.210Z,17.77
2024-03-04T02:36:02.662Z,18.07
2024-03-04T02:37:06.534Z,18.27
2024-03-04T02:38:10.623Z,20.83
2024-03-04T02:39:16.865Z,21.98
2024-03-04T02:40:20.082Z,21.27
2024-03-04T02:41:24.692Z,21.47
2024-03-04T02:42:27.933Z,21.62
2024-03-04T02:43:31.252Z,21.95
2024-03-04T02:44:35.527Z,23.00
2024-03-04T02:45:39.542Z,21.98
2024-03-04T02:46:44.591Z,21.83
2024-03-04T02:47:48.019Z,23.13
2024-03-04T02:48:53.666Z,21.78
2024-03-04T02:49:57.406Z,23.17
2024-03-04T02:51:04.973Z,21.97
2024-03-04T02:52:09.439Z,23.53
2024-03-04T02:53:12.848Z,23.82
2024-03-04T02:54:16.174Z,22.30
2024-03-04T02:55:19.683Z,22.48
2024-03-04T02:56:23.026Z,23.98
2024-03-04T02:57:27.810Z,25.07
2024-03-04T02:58:31.219Z,25.28
2024-03-04T02:59:34.555Z,30.72
2024-03-04T03:00:37.699Z,56.93
2024-03-04T03:01:42.739Z,63.83
2024-03-04T03:02:46.252Z,71.23
2024-03-04T03:03:52.087Z,104.72
2024-03-04T03:04:57.512Z,96.28
2024-03-04T03:06:03.209Z,67.47
2024-03-04T03:07:06.546Z,45.95
2024-03-04T03:08:10.152Z,48.45
2024-03-04T03:09:13.797Z,43.85
2024-03-04T03:10:17.125Z,50.00
2024-03-04T03:11:20.866Z,41.47
2024-03-04T03:12:24.185Z,39.25
2024-03-04T03:13:30.746Z,36.88
2024-03-04T03:14:37.513Z,35.28
2024-03-04T03:15:41.347Z,36.17
2024-03-04T03:16:44.755Z,34.90
2024-03-04T03:17:48.600Z,35.10
2024-03-04T03:18:52.580Z,35.48
2024-03-04T03:19:55.962Z,36.72
2024-03-04T03:20:59.178Z,36.88
2024-03-04T03:22:06.314Z,34.35
2024-03-04T03:23:09.573Z,32.42
2024-03-04T03:24:12.724Z,31.98
2024-03-04T03:25:16.461Z,30.67
2024-03-04T03:26:19.878Z,28.12
2024-03-04T03:27:23.145Z,29.17
2024-03-04T03:28:26.424Z,29.07
2024-03-04T03:29:29.872Z,28.07
2024-03-04T03:30:33.241Z,26.20
2024-03-04T03:31:38.010Z,25.53
2024-03-04T03:32:42.034Z,24.10
2024-03-04T03:33:45.455Z,23.45
2024-03-04T03:34:48.953Z,23.88
2024-03-04T03:35:52.213Z,25.30
2024-03-04T03:36:55.383Z,24.37
2024-03-04T03:37:58.615Z,25.15
2024-03-04T03:39:04.312Z,26.80
2024-03-04T03:40:09.206Z,29.20
2024-03-04T03:41:13.030Z,32.90
2024-03-04T03:42:16.296Z,41.42
2024-03-04T03:43:20.661Z,48.42
2024-03-04T03:44:24.376Z,48.38
2024-03-04T03:45:27.437Z,47.12
2024-03-04T03:46:31.146Z,44.37
2024-03-04T03:47:34.864Z,45.37
2024-03-04T03:48:43.638Z,43.38
2024-03-04T03:49:46.731Z,38.03
2024-03-04T03:50:50.157Z,34.95
2024-03-04T03:51:53.462Z,31.38
2024-03-04T03:52:56.702Z,30.57
2024-03-04T03:54:00.947Z,32.38
2024-03-04T03:55:04.460Z,30.88
2024-03-04T03:56:07.884Z,28.68
2024-03-04T03:57:11.157Z,30.38
2024-03-04T03:58:14.166Z,27.43
2024-03-04T03:59:17.251Z,26.47
2024-03-04T04:00:20.554Z,28.03
2024-03-04T04:01:25.478Z,25.93
2024-03-04T04:02:30.132Z,26.20
2024-03-04T04:03:35.096Z,25.65
2024-03-04T04:04:38.218Z,25.43
2024-03-04T04:05:41.943Z,25.68
2024-03-04T04:06:45.931Z,24.10
2024-03-04T04:07:49.271Z,24.12
2024-03-04T04:08:52.262Z,24.02
2024-03-04T04:09:55.594Z,23.22
2024-03-04T04:10:58.731Z,24.25
2024-03-04T04:12:02.289Z,25.33
2024-03-04T04:13:06.347Z,23.05
2024-03-04T04:14:09.323Z,23.87
2024-03-04T04:15:12.439Z,22.78
2024-03-04T04:16:15.850Z,22.48
2024-03-04T04:17:19.075Z,22.25
2024-03-04T04:18:22.515Z,22.50
2024-03-04T04:19:25.662Z,21.58
2024-03-04T04:20:29.123Z,20.98
2024-03-04T04:21:33.172Z,20.33
2024-03-04T04:22:36.679Z,20.32
2024-03-04T04:23:39.733Z,19.20
2024-03-04T04:24:45.192Z,19.80
2024-03-04T04:25:51.876Z,19.38
2024-03-04T04:26:55.127Z,18.55
2024-03-04T04:27:58.378Z,18.47
2024-03-04T04:29:01.641Z,18.02
2024-03-04T04:30:08.691Z,18.17
2024-03-04T04:31:22.899Z,19.12
2024-03-04T04:32:27.858Z,21.02
2024-03-04T04:33:31.056Z,23.55
2024-03-04T04:34:34.585Z,24.10
2024-03-04T04:35:37.787Z,22.82
2024-03-04T04:36:55.351Z,23.53
2024-03-04T04:37:58.356Z,21.35
2024-03-04T04:39:01.361Z,20.55
2024-03-04T04:40:09.086Z,19.50
2024-03-04T04:41:16.136Z,19.70
2024-03-04T04:42:19.449Z,20.20
2024-03-04T04:43:22.698Z,21.18
2024-03-04T04:44:26.377Z,20.72
2024-03-04T04:45:29.903Z,20.72
2024-03-04T04:46:33.977Z,20.30
2024-03-04T04:47:37.329Z,19.27
2024-03-04T04:48:41.490Z,19.58
2024-03-04T04:49:46.868Z,19.18
2024-03-04T04:50:51.304Z,19.08
2024-03-04T04:51:55.561Z,19.82
2024-03-04T04:53:00.445Z,20.60
2024-03-04T04:54:03.774Z,20.27
2024-03-04T04:55:07.587Z,19.48
2024-03-04T04:56:17.715Z,20.03
2024-03-04T04:57:21.963Z,19.20
2024-03-04T04:58:27.816Z,18.23
2024-03-04T04:59:31.085Z,18.98
2024-03-04T05:00:34.276Z,19.17
2024-03-04T05:01:37.915Z,19.05
2024-03-04T05:02:43.843Z,20.02
2024-03-04T05:04:00.423Z,19.65
2024-03-04T05:05:12.169Z,21.97
2024-03-04T05:06:15.744Z,22.83
2024-03-04T05:07:19.330Z,24.32
2024-03-04T05:08:22.551Z,25.78
2024-03-04T05:09:25.805Z,26.73
2024-03-04T05:10:32.750Z,28.90
2024-03-04T05:11:39.026Z,30.38
2024-03-04T05:12:42.284Z,25.93
2024-03-04T05:13:45.943Z,23.55
2024-03-04T05:14:49.073Z,20.60
2024-03-04T05:15:53.792Z,20.67
2024-03-04T05:16:57.280Z,20.57
2024-03-04T05:18:00.975Z,20.32
2024-03-04T05:19:05.299Z,19.18
2024-03-04T05:20:08.855Z,18.97
2024-03-04T05:21:14.044Z,19.42
2024-03-04T05:22:17.042Z,20.75
2024-03-04T05:23:20.453Z,20.28
2024-03-04T05:24:24.291Z,21.18
2024-03-04T05:25:27.736Z,21.05
2024-03-04T05:26:31.220Z,19.67
2024-03-04T05:27:35.803Z,21.17
2024-03-04T05:28:39.309Z,25.12
2024-03-04T05:29:42.695Z,26.32
2024-03-04T05:30:45.994Z,27.65
2024-03-04T05:31:54.689Z,27.28
2024-03-04T05:32:57.707Z,25.63
2024-03-04T05:34:01.256Z,27.65
2024-03-04T05:35:05.855Z,26.98
2024-03-04T05:36:09.985Z,25.87
2024-03-04T05:37:13.133Z,26.02
2024-03-04T05:38:18.380Z,24.57
2024-03-04T05:39:24.826Z,22.48
2024-03-04T05:40:27.923Z,20.57
2024-03-04T05:41:31.392Z,19.42
2024-03-04T05:42:36.626Z,19.12
2024-03-04T05:43:39.915Z,20.30
2024-03-04T05:44:43.539Z,19.08
2024-03-04T05:45:46.885Z,20.03
2024-03-04T05:46:50.180Z,21.40
2024-03-04T05:47:53.488Z,21.02
2024-03-04T05:48:57.069Z,21.67
2024-03-04T05:50:00.835Z,21.48
2024-03-04T05:51:05.015Z,19.25
2024-03-04T05:52:11.287Z,19.35
2024-03-04T05:53:14.929Z,18.87
2024-03-04T05:54:17.900Z,19.35
2024-03-04T05:55:21.294Z,19.27
2024-03-04T05:56:24.403Z,19.17
2024-03-04T05:57:27.446Z,19.68
2024-03-04T05:58:30.805Z,19.95
2024-03-04T05:59:34.100Z,19.47
2024-03-04T06:00:37.336Z,19.57
2024-03-04T06:01:41.588Z,19.25
2024-03-04T06:02:45.980Z,19.00
2024-03-04T06:03:50.372Z,19.35
2024-03-04T06:04:53.437Z,18.93
2024-03-04T06:05:59.890Z,18.95
2024-03-04T06:07:03.259Z,19.87
2024-03-04T06:08:07.678Z,18.60
2024-03-04T06:09:10.744Z,19.30
2024-03-04T06:10:14.514Z,19.42
2024-03-04T06:11:17.860Z,19.60
2024-03-04T06:12:21.245Z,19.28
2024-03-04T06:13:24.585Z,18.95
2024-03-04T06:14:27.972Z,18.90
2024-03-04T06:15:31.047Z,19.73
2024-03-04T06:16:34.277Z,20.35
2024-03-04T06:17:37.385Z,18.75
2024-03-04T06:18:40.472Z,18.63
2024-03-04T06:19:43.634Z,18.55
2024-03-04T06:20:46.748Z,20.65
2024-03-04T06:22:00.620Z,19.75
2024-03-04T06:23:08.700Z,19.43
2024-03-04T06:24:11.713Z,20.17
2024-03-04T06:25:15.946Z,19.60
2024-03-04T06:26:19.686Z,18.83
2024-03-04T06:27:26.350Z,19.13
2024-03-04T06:28:29.336Z,23.10
2024-03-04T06:29:32.403Z,20.40
2024-03-04T06:30:35.693Z,21.00
2024-03-04T06:31:40.734Z,19.80
2024-03-04T06:32:44.252Z,18.77
2024-03-04T06:33:53.169Z,17.93
2024-03-04T06:34:59.602Z,18.65
2024-03-04T06:36:03.009Z,19.07
2024-03-04T06:37:06.314Z,19.15
2024-03-04T06:38:09.670Z,20.12
2024-03-04T06:39:12.798Z,20.60
2024-03-04T06:40:19.175Z,19.48
2024-03-04T06:41:22.714Z,18.25
2024-03-04T06:42:28.542Z,20.87
2024-03-04T06:43:31.697Z,22.08
2024-03-04T06:44:34.827Z,20.25
2024-03-04T06:45:38.082Z,20.80
2024-03-04T06:46:41.802Z,20.55
2024-03-04T06:47:48.796Z,20.53
2024-03-04T06:48:52.678Z,22.88
2024-03-04T06:49:55.927Z,21.10
2024-03-04T06:50:59.259Z,24.13
2024-03-04T06:52:03.356Z,24.75
2024-03-04T06:53:08.779Z,23.93
2024-03-04T06:54:11.919Z,21.05
2024-03-04T06:55:15.195Z,21.17
2024-03-04T06:56:18.505Z,21.45
2024-03-04T06:57:21.789Z,21.58
2024-03-04T06:58:26.144Z,21.65
2024-03-04T06:59:29.516Z,21.63
2024-03-04T07:00:34.993Z,22.60
2024-03-04T07:01:38.432Z,25.17
2024-03-04T07:02:41.976Z,25.60
2024-03-04T07:03:46.860Z,25.48
2024-03-04T07:04:53.160Z,24.17
2024-03-04T07:05:56.395Z,23.82
2024-03-04T07:06:59.396Z,24.52
2024-03-04T07:08:02.545Z,29.00
2024-03-04T07:09:06.850Z,25.33
2024-03-04T07:10:10.447Z,21.92
2024-03-04T07:11:14.646Z,24.25
2024-03-04T07:12:17.728Z,44.57
2024-03-04T07:13:21.120Z,33.02
2024-03-04T07:14:24.442Z,28.87
2024-03-04T07:15:27.954Z,28.57
2024-03-04T07:16:34.422Z,27.77
2024-03-04T07:17:37.678Z,27.23
2024-03-04T07:18:40.940Z,28.23
2024-03-04T07:19:44.039Z,25.62
2024-03-04T07:20:48.462Z,24.87
2024-03-04T07:21:51.474Z,23.50
2024-03-04T07:22:54.744Z,21.70
2024-03-04T07:24:00.350Z,21.93
2024-03-04T07:25:03.781Z,21.45
2024-03-04T07:26:07.553Z,22.45
2024-03-04T07:27:11.152Z,23.30
2024-03-04T07:28:16.302Z,23.37
2024-03-04T07:29:27.132Z,22.03
2024-03-04T07:30:38.996Z,22.42
2024-03-04T07:31:42.682Z,22.68
2024-03-04T07:32:45.734Z,23.13
2024-03-04T07:33:48.745Z,24.77
2024-03-04T07:34:51.863Z,23.93
2024-03-04T07:35:54.811Z,22.92
2024-03-04T07:37:01.252Z,23.45
2024-03-04T07:38:04.773Z,24.18
2024-03-04T07:39:09.169Z,24.02
2024-03-04T07:40:13.323Z,23.40
2024-03-04T07:41:16.625Z,22.52
2024-03-04T07:42:21.835Z,23.05
2024-03-04T07:43:29.985Z,22.43
2024-03-04T07:44:37.952Z,22.08
2024-03-04T07:45:41.009Z,21.77
2024-03-04T07:46:44.537Z,21.78
2024-03-04T07:47:48.053Z,22.57
2024-03-04T07:48:51.119Z,22.15
2024-03-04T07:49:54.271Z,20.62
2024-03-04T07:50:57.307Z,21.68
2024-03-04T07:52:00.331Z,21.97
2024-03-04T07:53:03.794Z,23.95
2024-03-04T07:54:08.201Z,23.28
2024-03-04T07:55:13.508Z,23.50
2024-03-04T07:56:16.844Z,24.25
2024-03-04T07:57:29.252Z,23.42
2024-03-04T07:58:33.740Z,23.27
2024-03-04T07:59:37.245Z,22.37
2024-03-04T08:00:40.429Z,22.38
2024-03-04T08:01:47.439Z,22.70
2024-03-04T08:02:50.475Z,23.60
2024-03-04T08:03:53.801Z,23.60
2024-03-04T08:04:56.824Z,23.17
2024-03-04T08:05:59.994Z,23.07
2024-03-04T08:07:04.366Z,22.95
2024-03-04T08:08:08.529Z,23.08
2024-03-04T08:09:16.613Z,22.05
2024-03-04T08:10:23.475Z,23.02
2024-03-04T08:11:29.430Z,23.35
2024-03-04T08:12:32.480Z,23.72
2024-03-04T08:13:35.511Z,24.95
2024-03-04T08:14:39.660Z,24.17
2024-03-04T08:15:42.987Z,23.22
2024-03-04T08:16:46.656Z,24.05
2024-03-04T08:17:55.370Z,23.35
2024-03-04T08:19:00.325Z,23.97
2024-03-04T08:20:11.452Z,25.15
2024-03-04T08:21:20.364Z,25.75
2024-03-04T08:22:27.084Z,26.28
2024-03-04T08:23:30.373Z,25.22
2024-03-04T08:24:33.599Z,24.88
2024-03-04T08:25:36.908Z,25.30
2024-03-04T08:26:43.635Z,25.32
2024-03-04T08:27:47.448Z,24.57
2024-03-04T08:28:53.002Z,24.28
2024-03-04T08:29:56.292Z,24.00
2024-03-04T08:31:00.281Z,24.55
2024-03-04T08:32:05.503Z,25.62
2024-03-04T08:33:08.500Z,24.15
2024-03-04T08:34:11.639Z,24.82
2024-03-04T08:35:15.016Z,26.82
2024-03-04T08:36:18.484Z,28.30
2024-03-04T08:37:21.590Z,27.42
2024-03-04T08:38:28.108Z,26.07
2024-03-04T08:39:31.294Z,24.50
2024-03-04T08:40:34.585Z,26.97
2024-03-04T08:41:47.018Z,26.50
2024-03-04T08:42:51.315Z,26.42
2024-03-04T08:43:54.909Z,27.57
2024-03-04T08:44:57.962Z,28.38
2024-03-04T08:46:01.078Z,28.38
2024-03-04T08:47:04.422Z,30.52
2024-03-04T08:48:10.643Z,27.83
2024-03-04T08:49:17.367Z,28.42
2024-03-04T08:50:20.700Z,27.60
2024-03-04T08:51:25.504Z,28.72
2024-03-04T08:52:33.596Z,27.48
2024-03-04T08:53:36.869Z,27.88
2024-03-04T08:54:39.996Z,27.10
2024-03-04T08:55:43.105Z,27.20
2024-03-04T08:56:46.183Z,27.50
2024-03-04T08:57:50.136Z,26.03
2024-03-04T08:58:53.935Z,27.13
2024-03-04T09:00:02.247Z,28.03
2024-03-04T09:01:06.598Z,28.30
2024-03-04T09:02:11.866Z,26.25
2024-03-04T09:03:15.062Z,27.25
2024-03-04T09:04:18.183Z,26.13
2024-03-04T09:05:23.232Z,25.52
2024-03-04T09:06:26.621Z,26.13
2024-03-04T09:07:29.793Z,24.88
2024-03-04T09:08:33.064Z,26.60
2024-03-04T09:09:37.419Z,26.53
2024-03-04T09:10:41.688Z,25.62
2024-03-04T09:11:45.050Z,25.87
2024-03-04T09:12:50.917Z,25.95
2024-03-04T09:13:57.061Z,26.37
2024-03-04T09:15:00.242Z,26.28
2024-03-04T09:16:03.959Z,25.83
2024-03-04T09:17:10.837Z,25.97
2024-03-04T09:18:18.292Z,26.28
2024-03-04T09:19:21.847Z,26.55
2024-03-04T09:20:24.901Z,26.98
2024-03-04T09:21:28.202Z,28.45
2024-03-04T09:22:31.252Z,28.08
2024-03-04T09:23:37.714Z,27.50
2024-03-04T09:24:44.940Z,27.05
2024-03-04T09:25:49.281Z,27.03
2024-03-04T09:26:53.078Z,27.48
2024-03-04T09:27:56.052Z,27.07
2024-03-04T09:28:59.075Z,25.73
2024-03-04T09:30:05.828Z,26.23
2024-03-04T09:31:08.836Z,26.28
2024-03-04T09:32:12.950Z,27.10
2024-03-04T09:33:16.614Z,28.40
2024-03-04T09:34:19.731Z,28.98
2024-03-04T09:35:22.897Z,31.82
2024-03-04T09:36:25.873Z,30.25
2024-03-04T09:37:32.274Z,32.67
2024-03-04T09:38:35.498Z,33.75
2024-03-04T09:39:39.522Z,29.48
2024-03-04T09:40:53.344Z,29.00
2024-03-04T09:41:57.020Z,27.25
2024-03-04T09:43:00.341Z,27.77
2024-03-04T09:44:08.499Z,28.87
2024-03-04T09:45:12.614Z,30.12
2024-03-04T09:46:19.223Z,28.12
2024-03-04T09:47:22.707Z,26.88
2024-03-04T09:48:32.542Z,27.82
2024-03-04T09:49:37.209Z,28.45
2024-03-04T09:50:40.541Z,30.22
2024-03-04T09:51:46.787Z,28.27
2024-03-04T09:52:51.513Z,27.63
2024-03-04T09:53:55.265Z,27.80
2024-03-04T09:55:02.342Z,26.50
2024-03-04T09:56:08.202Z,25.50
2024-03-04T09:57:11.354Z,26.10
2024-03-04T09:58:15.888Z,26.60
2024-03-04T09:59:20.278Z,25.40
2024-03-04T10:00:24.609Z,25.13
2024-03-04T10:01:29.166Z,24.95
2024-03-04T10:02:34.153Z,24.45
2024-03-04T10:03:37.510Z,24.33
2024-03-04T10:04:44.195Z,25.62
2024-03-04T10:05:47.468Z,25.62
2024-03-04T10:06:50.701Z,25.13
2024-03-04T10:07:54.595Z,24.35
2024-03-04T10:08:57.627Z,25.68
2024-03-04T10:10:00.915Z,25.47
2024-03-04T10:11:04.911Z,23.08
2024-03-04T10:12:09.172Z,23.45
2024-03-04T10:13:12.632Z,23.20
2024-03-04T10:14:15.890Z,23.57
2024-03-04T10:15:23.333Z,23.23
2024-03-04T10:16:29.200Z,22.78
2024-03-04T10:17:32.380Z,24.07
2024-03-04T10:18:35.628Z,25.97
2024-03-04T10:19:39.537Z,23.82
2024-03-04T10:20:42.555Z,23.65
2024-03-04T10:21:45.603Z,23.82
2024-03-04T10:22:48.736Z,24.53
2024-03-04T10:23:51.721Z,24.77
2024-03-04T10:25:24.567Z,24.57
2024-03-04T10:26:39.754Z,24.23
2024-03-04T10:27:44.940Z,23.90
2024-03-04T10:28:49.946Z,25.57
2024-03-04T10:29:54.330Z,25.53
2024-03-04T10:31:11.007Z,24.98
2024-03-04T10:32:18.978Z,24.28
2024-03-04T10:33:22.465Z,25.50
2024-03-04T10:34:25.837Z,25.12
2024-03-04T10:35:37.667Z,23.53
2024-03-04T10:36:41.942Z,23.48
2024-03-04T10:37:46.122Z,25.52
2024-03-04T10:38:50.027Z,29.47
2024-03-04T10:39:53.607Z,26.97
2024-03-04T10:41:01.728Z,26.38
2024-03-04T10:42:05.889Z,25.68
2024-03-04T10:43:09.212Z,23.52
2024-03-04T10:44:27.092Z,23.07
2024-03-04T10:45:33.338Z,22.83
2024-03-04T10:46:40.234Z,22.97
2024-03-04T10:47:48.518Z,23.93
2024-03-04T10:48:53.413Z,22.95
2024-03-04T10:49:56.736Z,23.57
2024-03-04T10:51:00.039Z,24.35
2024-03-04T10:52:12.832Z,24.63
2024-03-04T10:53:43.497Z,23.17
2024-03-04T10:54:47.970Z,22.72
2024-03-04T10:55:57.672Z,23.77
2024-03-04T10:57:07.344Z,24.07
2024-03-04T10:58:13.480Z,24.48
2024-03-04T10:59:19.798Z,23.55
2024-03-04T11:00:27.859Z,23.18
2024-03-04T11:01:35.733Z,24.97
2024-03-04T11:03:00.002Z,23.88
2024-03-04T11:04:07.881Z,23.73
2024-03-04T11:05:18.690Z,23.13
2024-03-04T11:06:25.300Z,23.77
2024-03-04T11:07:35.339Z,23.35
2024-03-04T11:08:48.985Z,24.17
2024-03-04T11:09:54.949Z,22.80
2024-03-04T11:11:10.159Z,22.93
2024-03-04T11:12:18.539Z,21.67
2024-03-04T11:13:46.633Z,20.63
2024-03-04T11:15:04.214Z,21.55
2024-03-04T11:16:11.826Z,22.25
2024-03-04T11:17:23.946Z,21.30
2024-03-04T11:18:29.822Z,21.57
2024-03-04T11:19:45.380Z,20.97
2024-03-04T11:20:50.685Z,21.73
2024-03-04T11:21:57.685Z,21.27
2024-03-04T11:23:01.815Z,21.30
2024-03-04T11:24:08.061Z,20.92
2024-03-04T11:25:14.624Z,21.68
2024-03-04T11:26:24.438Z,21.60
2024-03-04T11:27:29.304Z,21.28
2024-03-04T11:28:34.676Z,21.50
2024-03-04T11:29:39.300Z,21.48
2024-03-04T11:30:44.892Z,22.17
2024-03-04T11:31:56.269Z,21.77
2024-03-04T11:33:39.566Z,21.60
2024-03-04T11:35:08.286Z,22.47
2024-03-04T11:36:12.783Z,23.88
2024-03-04T11:37:19.043Z,23.13
2024-03-04T11:38:30.421Z,23.25
2024-03-04T11:39:33.600Z,22.40
2024-03-04T11:40:38.359Z,21.55
2024-03-04T11:41:46.018Z,21.68
2024-03-04T11:42:51.366Z,20.68
2024-03-04T11:43:55.712Z,19.78
2024-03-04T11:44:58.986Z,20.47
2024-03-04T11:46:02.458Z,20.82
2024-03-04T11:47:13.050Z,21.58
2024-03-04T11:48:36.358Z,22.13
2024-03-04T11:49:49.082Z,23.02
2024-03-04T11:50:52.212Z,22.70
2024-03-04T11:52:16.501Z,22.47
2024-03-04T11:53:28.225Z,21.83
2024-03-04T11:54:38.039Z,22.97
2024-03-04T11:55:41.247Z,20.72
2024-03-04T11:56:45.216Z,21.35
2024-03-04T11:57:48.329Z,21.47
2024-03-04T11:58:51.902Z,21.55
2024-03-04T11:59:59.026Z,22.05
2024-03-04T12:01:09.018Z,21.43
2024-03-04T12:02:20.883Z,25.65
2024-03-04T12:03:24.286Z,25.17
2024-03-04T12:04:29.280Z,23.47
2024-03-04T12:05:33.104Z,23.75
2024-03-04T12:06:36.806Z,23.30
2024-03-04T12:07:39.892Z,21.73
2024-03-04T12:08:59.126Z,21.95
2024-03-04T12:10:16.239Z,21.97
2024-03-04T12:11:26.303Z,22.13
2024-03-04T12:12:29.633Z,21.18
2024-03-04T12:13:36.162Z,20.52
2024-03-04T12:14:40.147Z,22.70
2024-03-04T12:15:43.437Z,21.98
2024-03-04T12:16:46.752Z,21.63
2024-03-04T12:17:50.653Z,22.13
2024-03-04T12:18:53.902Z,21.85
2024-03-04T12:19:58.784Z,21.82
2024-03-04T12:21:06.617Z,23.15
2024-03-04T12:22:10.032Z,21.48
2024-03-04T12:23:16.322Z,21.37
2024-03-04T12:24:20.756Z,21.05
2024-03-04T12:25:26.710Z,22.30
2024-03-04T12:26:31.207Z,21.98
2024-03-04T12:27:35.803Z,20.80
2024-03-04T12:28:40.142Z,21.02
2024-03-04T12:29:43.257Z,20.53
2024-03-04T12:30:48.501Z,21.50
2024-03-04T12:31:54.787Z,21.30
2024-03-04T12:33:03.331Z,21.02
2024-03-04T12:34:08.034Z,21.32
2024-03-04T12:35:21.906Z,21.63
2024-03-04T12:36:27.712Z,22.22
2024-03-04T12:37:38.598Z,21.98
2024-03-04T12:38:44.370Z,20.73
2024-03-04T12:39:51.236Z,20.45
2024-03-04T12:40:54.589Z,20.75
2024-03-04T12:41:58.150Z,22.70
2024-03-04T12:43:04.872Z,22.27
2024-03-04T12:44:10.104Z,21.92
2024-03-04T12:45:14.280Z,21.57
2024-03-04T12:46:21.443Z,20.80
2024-03-04T12:47:26.125Z,21.18
2024-03-04T12:48:53.208Z,20.10
2024-03-04T12:49:58.864Z,20.65
2024-03-04T12:51:02.382Z,21.78
2024-03-04T12:52:05.471Z,20.77
2024-03-04T12:53:08.723Z,20.80
2024-03-04T12:54:32.609Z,20.95
2024-03-04T12:55:36.949Z,19.65
2024-03-04T12:56:40.369Z,19.32
2024-03-04T12:57:45.270Z,20.03
2024-03-04T12:58:51.364Z,21.15
2024-03-04T12:59:58.613Z,20.05
2024-03-04T13:01:02.363Z,20.27
2024-03-04T13:02:07.609Z,20.63
2024-03-04T13:03:19.924Z,20.87
2024-03-04T13:04:23.479Z,20.82
2024-03-04T13:05:27.673Z,22.58
2024-03-04T13:06:31.494Z,22.50
2024-03-04T13:07:35.650Z,22.83
2024-03-04T13:08:39.057Z,23.27
2024-03-04T13:09:42.034Z,20.42
2024-03-04T13:10:45.264Z,19.70
2024-03-04T13:11:48.792Z,19.70
2024-03-04T13:12:51.889Z,18.55
2024-03-04T13:13:54.841Z,19.00
2024-03-04T13:14:57.855Z,20.35
2024-03-04T13:16:01.049Z,19.73
2024-03-04T13:17:04.305Z,20.05
2024-03-04T13:18:10.366Z,19.00
2024-03-04T13:19:14.846Z,19.15
2024-03-04T13:20:18.401Z,19.80
2024-03-04T13:21:21.371Z,19.83
2024-03-04T13:22:25.078Z,20.28
2024-03-04T13:23:28.641Z,20.37
2024-03-04T13:24:31.732Z,19.93
2024-03-04T13:25:35.005Z,21.40
2024-03-04T13:26:39.099Z,20.82
2024-03-04T13:27:42.432Z,19.57
2024-03-04T13:28:45.565Z,19.57
2024-03-04T13:29:49.297Z,19.42
2024-03-04T13:30:52.522Z,19.80
2024-03-04T13:31:55.802Z,18.75
2024-03-04T13:32:59.062Z,18.72
2024-03-04T13:34:04.891Z,18.73
2024-03-04T13:35:11.125Z,17.53
2024-03-04T13:36:14.870Z,19.02
2024-03-04T13:37:19.327Z,18.73
2024-03-04T13:38:22.894Z,18.00
2024-03-04T13:39:26.505Z,18.37
2024-03-04T13:40:30.051Z,17.73
2024-03-04T13:41:33.088Z,17.82
2024-03-04T13:42:36.612Z,18.15
2024-03-04T13:43:40.257Z,17.90
2024-03-04T13:44:45.106Z,18.15
2024-03-04T13:45:49.508Z,18.40
2024-03-04T13:46:52.720Z,18.17
2024-03-04T13:47:55.835Z,18.23
2024-03-04T13:48:59.250Z,19.20
2024-03-04T13:50:03.860Z,18.38
2024-03-04T13:51:07.390Z,18.97
2024-03-04T13:52:10.833Z,18.93
2024-03-04T13:53:14.281Z,18.33
2024-03-04T13:54:18.758Z,18.57
2024-03-04T13:55:22.111Z,18.68
2024-03-04T13:56:25.333Z,18.35
2024-03-04T13:57:29.047Z,18.67
2024-03-04T13:58:34.030Z,18.27